createdAt,value
2023-05-11T00:02:10.592Z,100.00
2023-05-11T00:04:38.980Z,100.00
2023-05-11T00:07:07.250Z,100.00
2023-05-11T00:09:38.494Z,100.00
2023-05-11T00:12:07.783Z,100.00
2023-05-11T00:14:36.086Z,100.00
2023-05-11T00:17:04.412Z,100.00
2023-05-11T00:19:33.041Z,100.00
2023-05-11T00:22:01.823Z,100.00
2023-05-11T00:24:30.338Z,100.00
2023-05-11T00:26:59.986Z,100.00
2023-05-11T00:29:28.250Z,100.00
2023-05-11T00:31:56.613Z,89.13
2023-05-11T00:34:25.149Z,83.79
2023-05-11T00:36:53.451Z,90.73
2023-05-11T00:39:21.709Z,95.22
2023-05-11T00:41:50.053Z,100.00
2023-05-11T00:44:19.641Z,89.18
2023-05-11T00:46:47.979Z,86.48
2023-05-11T00:49:17.368Z,87.02
2023-05-11T00:51:45.750Z,83.58
2023-05-11T00:54:15.713Z,90.08
2023-05-11T00:56:43.942Z,89.42
2023-05-11T00:59:13.613Z,100.00
2023-05-11T01:01:43.337Z,93.97
2023-05-11T01:04:11.794Z,97.47
2023-05-11T01:06:46.757Z,100.00
2023-05-11T01:09:25.679Z,100.00
2023-05-11T01:11:59.558Z,95.07
2023-05-11T01:14:31.307Z,100.00
2023-05-11T01:17:05.172Z,100.00
2023-05-11T01:19:42.313Z,99.89
2023-05-11T01:22:19.897Z,95.49
2023-05-11T01:24:59.764Z,95.63
2023-05-11T01:27:45.262Z,82.81
2023-05-11T01:30:27.389Z,89.63
2023-05-11T01:32:56.635Z,90.04
2023-05-11T01:35:26.520Z,98.74
2023-05-11T01:37:58.660Z,92.80
2023-05-11T01:40:29.877Z,96.82
2023-05-11T01:43:02.437Z,83.06
2023-05-11T01:45:35.823Z,100.00
2023-05-11T01:48:06.743Z,88.36
2023-05-11T01:50:36.092Z,86.00
2023-05-11T01:53:04.684Z,84.56
2023-05-11T01:55:35.929Z,89.06
2023-05-11T01:58:05.418Z,83.15
2023-05-11T02:00:35.946Z,90.42
2023-05-11T02:03:07.156Z,92.75
2023-05-11T02:05:36.091Z,89.89
2023-05-11T02:08:05.858Z,84.14
2023-05-11T02:10:35.504Z,76.73
2023-05-11T02:13:05.324Z,76.79
2023-05-11T02:15:36.761Z,82.93
2023-05-11T02:18:06.351Z,84.24
2023-05-11T02:20:34.814Z,81.89
2023-05-11T02:23:03.819Z,94.41
2023-05-11T02:25:32.802Z,85.44
2023-05-11T02:28:01.294Z,93.99
2023-05-11T02:30:30.818Z,97.03
2023-05-11T02:33:07.034Z,88.54
2023-05-11T02:35:39.481Z,89.87
2023-05-11T02:38:08.416Z,84.04
2023-05-11T02:40:41.022Z,87.15
2023-05-11T02:43:10.748Z,82.13
2023-05-11T02:45:40.395Z,89.60
2023-05-11T02:48:14.141Z,82.98
2023-05-11T02:50:43.347Z,85.12
2023-05-11T02:53:15.904Z,90.18
2023-05-11T02:55:44.212Z,89.33
2023-05-11T02:58:12.536Z,92.77
2023-05-11T03:00:41.008Z,98.63
2023-05-11T03:03:10.766Z,100.00
2023-05-11T03:05:39.088Z,100.00
2023-05-11T03:08:07.452Z,100.00
2023-05-11T03:10:36.271Z,100.00
2023-05-11T03:13:04.762Z,100.00
2023-05-11T03:15:33.558Z,100.00
2023-05-11T03:18:02.137Z,100.00
2023-05-11T03:20:33.076Z,100.00
2023-05-11T03:23:01.871Z,100.00
2023-05-11T03:25:30.500Z,100.00
2023-05-11T03:27:59.555Z,100.00
2023-05-11T03:30:29.429Z,100.00
2023-05-11T03:32:57.754Z,100.00
2023-05-11T03:35:28.486Z,100.00
2023-05-11T03:37:57.925Z,100.00
2023-05-11T03:40:27.882Z,100.00
2023-05-11T03:42:56.724Z,100.00
2023-05-11T03:45:26.348Z,100.00
2023-05-11T03:47:55.276Z,100.00
2023-05-11T03:50:23.921Z,100.00
2023-05-11T03:52:52.412Z,100.00
2023-05-11T03:55:22.900Z,100.00
2023-05-11T03:57:51.751Z,100.00
2023-05-11T04:00:20.476Z,100.00
2023-05-11T04:02:48.970Z,100.00
2023-05-11T04:05:18.469Z,100.00
2023-05-11T04:07:46.794Z,100.00
2023-05-11T04:10:15.085Z,100.00
2023-05-11T04:12:44.775Z,100.00
2023-05-11T04:15:13.148Z,100.00
2023-05-11T04:17:41.413Z,100.00
2023-05-11T04:20:10.293Z,100.00
2023-05-11T04:22:38.650Z,100.00
2023-05-11T04:25:07.743Z,100.00
2023-05-11T04:27:36.159Z,100.00
2023-05-11T04:30:07.083Z,100.00
2023-05-11T04:32:35.411Z,100.00
2023-05-11T04:35:04.018Z,100.00
2023-05-11T04:37:45.095Z,100.00
2023-05-11T04:40:28.633Z,100.00
2023-05-11T04:42:58.482Z,100.00
2023-05-11T04:45:29.322Z,100.00
2023-05-11T04:47:59.433Z,99.23
2023-05-11T04:50:28.864Z,95.72
2023-05-11T04:52:57.167Z,100.00
2023-05-11T04:55:25.496Z,100.00
2023-05-11T04:57:53.817Z,93.55
2023-05-11T05:00:22.931Z,100.00
2023-05-11T05:02:52.756Z,90.46
2023-05-11T05:05:21.200Z,96.11
2023-05-11T05:07:49.482Z,92.78
2023-05-11T05:10:17.898Z,84.10
2023-05-11T05:12:46.811Z,93.11
2023-05-11T05:15:15.788Z,97.32
2023-05-11T05:17:44.276Z,78.55
2023-05-11T05:20:14.092Z,94.89
2023-05-11T05:22:42.716Z,94.48
2023-05-11T05:25:12.125Z,100.00
2023-05-11T05:27:40.393Z,100.00
2023-05-11T05:30:09.480Z,96.26
2023-05-11T05:32:37.767Z,93.81
2023-05-11T05:35:06.960Z,92.84
2023-05-11T05:37:37.550Z,94.38
2023-05-11T05:40:06.130Z,75.26
2023-05-11T05:42:34.355Z,99.42
2023-05-11T05:45:02.592Z,99.67
2023-05-11T05:47:30.871Z,92.59
2023-05-11T05:49:59.162Z,92.98
2023-05-11T05:52:27.388Z,86.72
2023-05-11T05:54:57.631Z,92.05
2023-05-11T05:57:26.602Z,100.00
2023-05-11T05:59:55.181Z,100.00
2023-05-11T06:02:23.659Z,96.96
2023-05-11T06:04:51.997Z,92.52
2023-05-11T06:07:20.348Z,100.00
2023-05-11T06:09:48.639Z,99.68
2023-05-11T06:12:18.364Z,97.64
2023-05-11T06:14:46.711Z,96.56
2023-05-11T06:17:15.012Z,98.73
2023-05-11T06:19:43.636Z,100.00
2023-05-11T06:22:12.082Z,100.00
2023-05-11T06:24:40.356Z,100.00
2023-05-11T06:27:08.675Z,100.00
2023-05-11T06:29:38.665Z,94.62
2023-05-11T06:32:07.487Z,89.50
2023-05-11T06:34:35.938Z,98.83
2023-05-11T06:37:04.274Z,91.75
2023-05-11T06:39:32.659Z,100.00
2023-05-11T06:42:03.568Z,91.47
2023-05-11T06:47:21.362Z,100.00
2023-05-11T06:49:49.704Z,100.00
2023-05-11T06:52:18.081Z,92.08
2023-05-11T06:54:46.376Z,99.84
2023-05-11T06:57:14.812Z,99.96
2023-05-11T06:59:44.095Z,93.44
2023-05-11T07:02:12.494Z,88.84
2023-05-11T07:04:42.267Z,91.65
2023-05-11T07:07:11.368Z,79.75
2023-05-11T07:09:40.758Z,90.00
2023-05-11T07:12:10.368Z,84.70
2023-05-11T07:14:38.657Z,96.20
2023-05-11T07:17:07.494Z,95.68
2023-05-11T07:19:35.876Z,86.01
2023-05-11T07:22:05.879Z,98.73
2023-05-11T07:24:34.257Z,88.43
2023-05-11T07:27:02.532Z,100.00
2023-05-11T07:29:30.851Z,84.34
2023-05-11T07:31:59.199Z,92.22
2023-05-11T07:34:27.638Z,83.32
2023-05-11T07:36:56.006Z,87.95
2023-05-11T07:39:25.578Z,87.96
2023-05-11T07:41:53.950Z,89.71
2023-05-11T07:44:22.350Z,98.02
2023-05-11T07:46:50.717Z,95.85
2023-05-11T07:49:25.459Z,82.89
2023-05-11T07:52:03.694Z,97.08
2023-05-11T07:54:33.410Z,86.42
2023-05-11T07:57:02.274Z,100.00
2023-05-11T07:59:30.543Z,88.92
2023-05-11T08:01:58.901Z,88.93
2023-05-11T08:04:28.475Z,87.03
2023-05-11T08:09:18.782Z,83.33
2023-05-11T08:11:47.037Z,77.86
2023-05-11T08:14:15.786Z,76.55
2023-05-11T08:16:44.483Z,80.50
2023-05-11T08:19:14.101Z,85.50
2023-05-11T08:21:42.521Z,92.07
2023-05-11T08:24:10.953Z,90.97
2023-05-11T08:26:40.568Z,88.47
2023-05-11T08:29:08.850Z,84.20
2023-05-11T08:31:37.132Z,82.09
2023-05-11T08:34:13.812Z,80.96
2023-05-11T08:36:46.839Z,84.35
2023-05-11T08:39:32.881Z,91.79
2023-05-11T08:42:07.995Z,82.18
2023-05-11T08:44:38.132Z,100.00
2023-05-11T08:47:21.799Z,86.55
2023-05-11T08:49:52.485Z,82.01
2023-05-11T08:52:20.879Z,75.90
2023-05-11T08:54:49.280Z,85.86
2023-05-11T08:57:19.126Z,88.01
2023-05-11T08:59:47.799Z,81.70
2023-05-11T09:02:18.732Z,77.57
2023-05-11T09:04:48.896Z,76.41
2023-05-11T09:07:18.414Z,78.31
2023-05-11T09:09:47.230Z,74.83
2023-05-11T09:12:16.053Z,72.14
2023-05-11T09:14:47.122Z,76.12
2023-05-11T09:17:15.525Z,70.90
2023-05-11T09:20:00.954Z,64.67
2023-05-11T09:22:31.447Z,67.99
2023-05-11T09:25:01.755Z,65.90
2023-05-11T09:27:30.122Z,64.89
2023-05-11T09:30:11.349Z,70.01
2023-05-11T09:32:48.631Z,74.48
2023-05-11T09:35:21.584Z,65.33
2023-05-11T09:38:01.119Z,63.19
2023-05-11T09:40:34.304Z,72.72
2023-05-11T09:43:03.879Z,78.36
2023-05-11T09:45:44.026Z,73.00
2023-05-11T09:48:25.111Z,73.21
2023-05-11T09:51:00.420Z,72.82
2023-05-11T09:53:43.570Z,72.27
2023-05-11T09:56:12.394Z,69.95
2023-05-11T09:58:48.454Z,71.62
2023-05-11T10:01:18.836Z,67.21
2023-05-11T10:03:49.030Z,67.64
2023-05-11T10:06:20.024Z,68.79
2023-05-11T10:08:49.197Z,73.20
2023-05-11T10:11:17.632Z,68.45
2023-05-11T10:13:46.629Z,66.59
2023-05-11T10:16:19.911Z,64.07
2023-05-11T10:18:48.986Z,66.89
2023-05-11T10:21:17.930Z,66.54
2023-05-11T10:23:46.440Z,67.12
2023-05-11T10:26:15.408Z,61.48
2023-05-11T10:28:44.014Z,63.02
2023-05-11T10:31:12.476Z,66.50
2023-05-11T10:33:43.125Z,68.80
2023-05-11T10:36:19.117Z,75.30
2023-05-11T10:38:48.055Z,72.30
2023-05-11T10:41:26.676Z,71.96
2023-05-11T10:44:21.074Z,73.31
2023-05-11T10:47:02.866Z,79.21
2023-05-11T10:49:49.905Z,66.02
2023-05-11T10:52:37.268Z,67.14
2023-05-11T10:55:11.798Z,64.75
2023-05-11T10:57:56.434Z,60.66
2023-05-11T11:01:04.163Z,57.04
2023-05-11T11:03:32.707Z,63.83
2023-05-11T11:06:02.386Z,58.85
2023-05-11T11:08:30.779Z,57.29
2023-05-11T11:10:59.063Z,59.33
2023-05-11T11:13:27.400Z,56.54
2023-05-11T11:16:16.654Z,55.29
2023-05-11T11:18:45.575Z,58.91
2023-05-11T11:21:41.352Z,60.07
2023-05-11T11:24:09.646Z,60.94
2023-05-11T11:26:48.756Z,59.16
2023-05-11T11:29:17.086Z,61.90
2023-05-11T11:31:45.438Z,58.46
2023-05-11T11:34:36.713Z,58.03
2023-05-11T11:37:08.717Z,62.43
2023-05-11T11:40:05.990Z,62.42
2023-05-11T11:42:44.217Z,64.46
2023-05-11T11:45:50.654Z,59.16
2023-05-11T11:48:23.003Z,69.87
2023-05-11T11:51:02.664Z,63.46
2023-05-11T11:54:04.117Z,70.36
2023-05-11T11:56:41.502Z,65.31
2023-05-11T11:59:13.860Z,69.16
2023-05-11T12:01:44.597Z,68.52
2023-05-11T12:04:40.725Z,69.30
2023-05-11T12:07:11.393Z,77.01
2023-05-11T12:09:41.097Z,70.21
2023-05-11T12:12:12.046Z,65.09
2023-05-11T12:14:42.091Z,69.68
2023-05-11T12:17:15.818Z,68.15
2023-05-11T12:19:45.674Z,81.40
2023-05-11T12:22:16.443Z,79.22
2023-05-11T12:24:45.042Z,81.15
2023-05-11T12:27:14.998Z,86.07
2023-05-11T12:29:45.986Z,76.11
2023-05-11T12:32:14.989Z,73.33
2023-05-11T12:34:43.340Z,67.65
2023-05-11T12:37:11.603Z,71.12
2023-05-11T12:39:41.120Z,70.04
2023-05-11T12:42:09.937Z,75.60
2023-05-11T12:44:41.539Z,73.29
2023-05-11T12:47:14.584Z,69.64
2023-05-11T12:49:43.541Z,72.52
2023-05-11T12:52:14.850Z,78.20
2023-05-11T12:54:51.285Z,73.86
2023-05-11T12:57:29.531Z,67.92
2023-05-11T13:00:11.523Z,65.39
2023-05-11T13:02:50.029Z,61.73
2023-05-11T13:05:20.597Z,65.91
2023-05-11T13:07:49.581Z,62.33
2023-05-11T13:10:17.819Z,61.62
2023-05-11T13:12:49.604Z,63.07
2023-05-11T13:15:20.642Z,72.78
2023-05-11T13:17:55.164Z,68.91
2023-05-11T13:20:29.531Z,64.44
2023-05-11T13:23:08.805Z,65.03
2023-05-11T13:25:55.690Z,60.28
2023-05-11T13:28:25.248Z,68.74
2023-05-11T13:31:00.420Z,68.60
2023-05-11T13:33:29.059Z,63.56
2023-05-11T13:35:57.393Z,59.22
2023-05-11T13:38:26.106Z,60.15
2023-05-11T13:40:54.447Z,57.36
2023-05-11T13:43:23.610Z,53.47
2023-05-11T13:45:52.125Z,55.22
2023-05-11T13:48:21.921Z,54.60
2023-05-11T13:50:50.307Z,51.66
2023-05-11T13:53:19.046Z,50.08
2023-05-11T13:55:48.329Z,51.79
2023-05-11T13:58:17.877Z,53.22
2023-05-11T14:00:56.432Z,50.90
2023-05-11T14:03:34.340Z,50.54
2023-05-11T14:06:02.671Z,51.01
2023-05-11T14:08:31.317Z,50.07
2023-05-11T14:11:00.669Z,48.24
2023-05-11T14:13:29.084Z,48.32
2023-05-11T14:15:58.187Z,50.98
2023-05-11T14:18:26.640Z,58.42
2023-05-11T14:20:56.897Z,65.71
2023-05-11T14:23:25.123Z,73.37
2023-05-11T14:25:53.341Z,78.03
2023-05-11T14:28:21.937Z,84.57
2023-05-11T14:30:50.232Z,92.06
2023-05-11T14:33:18.523Z,87.77
2023-05-11T14:35:48.747Z,97.61
2023-05-11T14:38:18.448Z,89.25
2023-05-11T14:40:47.167Z,86.30
2023-05-11T14:43:15.415Z,81.16
2023-05-11T14:45:43.657Z,76.69
2023-05-11T14:48:11.919Z,71.21
2023-05-11T14:50:40.466Z,73.38
2023-05-11T14:53:08.696Z,64.36
2023-05-11T14:55:38.980Z,59.01
2023-05-11T14:58:09.225Z,63.21
2023-05-11T15:00:40.265Z,63.34
2023-05-11T15:03:10.580Z,58.63
2023-05-11T15:05:39.177Z,55.60
2023-05-11T15:08:18.361Z,59.97
2023-05-11T15:10:55.850Z,54.83
2023-05-11T15:13:24.375Z,58.19
2023-05-11T15:15:52.755Z,54.78
2023-05-11T15:18:21.177Z,54.33
2023-05-11T15:20:49.609Z,55.36
2023-05-11T15:23:18.000Z,55.82
2023-05-11T15:25:46.385Z,54.43
2023-05-11T15:28:16.303Z,54.94
2023-05-11T15:30:44.542Z,52.28
2023-05-11T15:33:12.829Z,57.69
2023-05-11T15:35:41.181Z,55.58
2023-05-11T15:38:09.539Z,56.38
2023-05-11T15:40:37.939Z,55.52
2023-05-11T15:43:06.199Z,52.99
2023-05-11T15:45:36.222Z,58.70
2023-05-11T15:48:04.928Z,54.01
2023-05-11T15:50:33.316Z,56.71
2023-05-11T15:53:02.102Z,53.69
2023-05-11T15:55:30.401Z,56.50
2023-05-11T15:57:58.693Z,53.14
2023-05-11T16:00:27.282Z,55.47
2023-05-11T16:02:57.010Z,52.57
2023-05-11T16:05:25.365Z,52.94
2023-05-11T16:07:53.675Z,53.72
2023-05-11T16:10:22.233Z,52.20
2023-05-11T16:12:50.581Z,51.91
2023-05-11T16:15:18.802Z,51.33
2023-05-11T16:17:47.520Z,55.61
2023-05-11T16:20:17.223Z,54.68
2023-05-11T16:22:47.507Z,60.24
2023-05-11T16:25:16.123Z,56.45
2023-05-11T16:27:44.415Z,56.90
2023-05-11T16:30:23.157Z,57.93
2023-05-11T16:32:54.163Z,60.75
2023-05-11T16:35:23.929Z,65.59
2023-05-11T16:37:52.541Z,67.76
2023-05-11T16:40:21.528Z,67.28
2023-05-11T16:42:50.142Z,74.26
2023-05-11T16:45:18.417Z,70.25
2023-05-11T16:47:46.765Z,74.59
2023-05-11T16:50:16.120Z,69.44
2023-05-11T16:52:46.128Z,65.63
2023-05-11T16:55:20.457Z,75.59
2023-05-11T16:57:52.835Z,66.86
2023-05-11T17:00:21.724Z,63.89
2023-05-11T17:02:50.377Z,63.38
2023-05-11T17:05:19.004Z,65.89
2023-05-11T17:07:48.785Z,64.32
2023-05-11T17:10:18.952Z,64.84
2023-05-11T17:12:58.555Z,61.92
2023-05-11T17:15:27.029Z,60.50
2023-05-11T17:18:01.506Z,58.88
2023-05-11T17:20:29.895Z,58.69
2023-05-11T17:23:00.964Z,61.12
2023-05-11T17:25:29.998Z,58.80
2023-05-11T17:27:58.281Z,58.51
2023-05-11T17:30:36.411Z,57.61
2023-05-11T17:33:15.052Z,60.14
2023-05-11T17:35:43.634Z,59.01
2023-05-11T17:38:13.278Z,60.50
2023-05-11T17:40:42.522Z,61.57
2023-05-11T17:43:11.525Z,59.78
2023-05-11T17:45:40.214Z,57.94
2023-05-11T17:48:08.691Z,54.93
2023-05-11T17:50:37.289Z,52.16
2023-05-11T17:53:06.126Z,51.47
2023-05-11T17:55:39.274Z,50.81
2023-05-11T17:58:07.637Z,50.61
2023-05-11T18:00:39.079Z,51.33
2023-05-11T18:03:09.347Z,50.22
2023-05-11T18:05:54.629Z,52.70
2023-05-11T18:08:23.222Z,56.23
2023-05-11T18:10:54.777Z,55.32
2023-05-11T18:13:23.638Z,51.83
2023-05-11T18:15:51.923Z,55.43
2023-05-11T18:18:20.734Z,53.10
2023-05-11T18:20:49.488Z,53.14
2023-05-11T18:23:17.819Z,50.81
2023-05-11T18:25:46.100Z,50.56
2023-05-11T18:28:15.671Z,50.31
2023-05-11T18:30:43.940Z,50.29
2023-05-11T18:33:12.212Z,50.54
2023-05-11T18:35:41.660Z,51.25
2023-05-11T18:38:09.928Z,51.67
2023-05-11T18:40:38.220Z,51.06
2023-05-11T18:43:06.706Z,52.77
2023-05-11T18:45:36.349Z,53.83
2023-05-11T18:48:05.138Z,55.54
2023-05-11T18:50:33.918Z,55.08
2023-05-11T18:53:02.272Z,53.52
2023-05-11T18:55:35.504Z,52.58
2023-05-11T18:58:09.504Z,52.17
2023-05-11T19:00:39.573Z,52.00
2023-05-11T19:03:08.196Z,52.18
2023-05-11T19:05:36.449Z,52.16
2023-05-11T19:08:04.967Z,52.74
2023-05-11T19:10:33.181Z,53.19
2023-05-11T19:13:01.397Z,53.05
2023-05-11T19:15:29.615Z,53.08
2023-05-11T19:17:59.215Z,54.13
2023-05-11T19:20:27.469Z,53.80
2023-05-11T19:22:55.706Z,53.21
2023-05-11T19:25:24.059Z,54.07
2023-05-11T19:27:52.303Z,53.75
2023-05-11T19:30:21.016Z,53.50
2023-05-11T19:32:49.418Z,52.86
2023-05-11T19:35:19.711Z,54.17
2023-05-11T19:37:48.464Z,53.83
2023-05-11T19:42:48.045Z,54.44
2023-05-11T19:45:16.276Z,54.84
2023-05-11T19:47:44.871Z,55.17
2023-05-11T19:50:14.693Z,55.50
2023-05-11T19:52:44.248Z,55.63
2023-05-11T19:55:12.487Z,55.30
2023-05-11T19:57:40.646Z,55.83
2023-05-11T20:00:09.746Z,55.78
2023-05-11T20:02:38.101Z,55.56
2023-05-11T20:05:07.830Z,55.59
2023-05-11T20:07:36.112Z,54.87
2023-05-11T20:10:06.680Z,54.06
2023-05-11T20:12:34.757Z,50.77
2023-05-11T20:15:03.092Z,53.30
2023-05-11T20:17:31.444Z,53.43
2023-05-11T20:19:59.758Z,54.22
2023-05-11T20:22:28.196Z,54.07
2023-05-11T20:24:56.735Z,54.02
2023-05-11T20:27:26.609Z,54.21
2023-05-11T20:29:56.125Z,53.63
2023-05-11T20:32:24.639Z,54.25
2023-05-11T20:34:53.046Z,53.03
2023-05-11T20:37:21.510Z,52.48
2023-05-11T20:39:49.822Z,53.85
2023-05-11T20:42:18.063Z,53.30
2023-05-11T20:44:49.850Z,53.35
2023-05-11T20:47:18.474Z,53.59
2023-05-11T20:49:47.722Z,52.79
2023-05-11T20:52:17.573Z,53.96
2023-05-11T20:54:48.114Z,55.80
2023-05-11T20:57:16.266Z,51.98
2023-05-11T21:02:17.270Z,58.59
2023-05-11T21:04:45.871Z,56.35
2023-05-11T21:07:14.093Z,59.33
2023-05-11T21:09:44.431Z,56.17
2023-05-11T21:12:12.701Z,56.06
2023-05-11T21:14:41.452Z,56.50
2023-05-11T21:17:09.791Z,55.65
2023-05-11T21:19:39.538Z,56.34
2023-05-11T21:22:07.851Z,54.83
2023-05-11T21:24:37.581Z,54.63
2023-05-11T21:27:06.080Z,53.95
2023-05-11T21:29:37.067Z,53.68
2023-05-11T21:34:55.935Z,53.02
2023-05-11T21:37:24.234Z,52.87
2023-05-11T21:39:53.042Z,54.52
2023-05-11T21:42:21.879Z,53.45
2023-05-11T21:44:50.278Z,51.78
2023-05-11T21:47:18.626Z,51.37
2023-05-11T21:49:46.999Z,54.47
2023-05-11T21:52:16.611Z,53.57
2023-05-11T21:54:44.876Z,57.60
2023-05-11T21:57:13.165Z,60.56
2023-05-11T21:59:41.382Z,67.61
2023-05-11T22:02:09.658Z,65.33
2023-05-11T22:04:38.002Z,58.68
2023-05-11T22:07:06.486Z,63.90
2023-05-11T22:09:36.268Z,61.68
2023-05-11T22:12:05.037Z,64.75
2023-05-11T22:14:33.411Z,66.43
2023-05-11T22:17:01.778Z,63.13
2023-05-11T22:19:30.154Z,62.58
2023-05-11T22:21:58.354Z,63.42
2023-05-11T22:24:27.235Z,59.86
2023-05-11T22:26:57.289Z,63.02
2023-05-11T22:29:25.540Z,62.37
2023-05-11T22:31:53.837Z,61.96
2023-05-11T22:34:22.219Z,60.27
2023-05-11T22:36:50.452Z,57.26
2023-05-11T22:39:18.868Z,62.53
2023-05-11T22:41:47.078Z,62.97
2023-05-11T22:44:17.737Z,66.39
2023-05-11T22:46:46.024Z,66.20
2023-05-11T22:49:14.299Z,67.59
2023-05-11T22:51:42.565Z,67.85
2023-05-11T22:54:11.011Z,68.76
2023-05-11T22:56:39.318Z,69.98
2023-05-11T22:59:07.885Z,68.97
2023-05-11T23:01:37.519Z,70.94
2023-05-11T23:04:05.868Z,66.58
2023-05-11T23:06:34.174Z,68.74
2023-05-11T23:09:02.844Z,66.11
2023-05-11T23:11:31.047Z,62.59
2023-05-11T23:13:59.559Z,60.72
2023-05-11T23:16:27.912Z,58.02
2023-05-11T23:18:57.606Z,57.52
2023-05-11T23:21:26.162Z,57.92
2023-05-11T23:23:54.551Z,56.93
2023-05-11T23:26:23.068Z,55.74
2023-05-11T23:28:51.622Z,57.73
2023-05-11T23:31:20.017Z,55.44
2023-05-11T23:33:48.326Z,56.87
2023-05-11T23:36:17.946Z,58.81
2023-05-11T23:38:46.430Z,56.40
2023-05-11T23:41:14.697Z,56.90
2023-05-11T23:43:42.962Z,59.78
2023-05-11T23:46:11.574Z,56.99
2023-05-11T23:48:40.165Z,59.72
2023-05-11T23:51:08.416Z,59.98
2023-05-11T23:53:38.125Z,56.09
2023-05-11T23:56:07.171Z,54.50
2023-05-11T23:58:35.464Z,54.86
